sensor_id;sensor_type;location;lat;lon;timestamp;P1;durP1;ratioP1;P2;durP2;ratioP2
36585;SDS011;22591;48.314;11.562;2023-06-26T00:02:24;9.82;;;9.02;;
36585;SDS011;22591;48.314;11.562;2023-06-26T00:04:50;8.65;;;7.93;;
36585;SDS011;22591;48.314;11.562;2023-06-26T00:07:19;9.82;;;8.75;;
36585;SDS011;22591;48.314;11.562;2023-06-26T00:09:45;8.68;;;7.93;;
36585;SDS011;22591;48.314;11.562;2023-06-26T00:12:10;9.65;;;8.77;;
36585;SDS011;22591;48.314;11.562;2023-06-26T00:14:36;9.40;;;8.57;;
36585;SDS011;22591;48.314;11.562;2023-06-26T00:17:02;10.68;;;8.65;;
36585;SDS011;22591;48.314;11.562;2023-06-26T00:19:27;9.27;;;8.48;;
36585;SDS011;22591;48.314;11.562;2023-06-26T00:21:53;10.00;;;8.68;;
36585;SDS011;22591;48.314;11.562;2023-06-26T00:24:18;10.23;;;9.30;;
36585;SDS011;22591;48.314;11.562;2023-06-26T00:26:46;8.68;;;7.97;;
36585;SDS011;22591;48.314;11.562;2023-06-26T00:29:12;8.20;;;7.50;;
36585;SDS011;22591;48.314;11.562;2023-06-26T00:31:38;8.55;;;7.85;;
36585;SDS011;22591;48.314;11.562;2023-06-26T00:34:05;9.85;;;8.85;;
36585;SDS011;22591;48.314;11.562;2023-06-26T00:36:31;9.20;;;8.45;;
36585;SDS011;22591;48.314;11.562;2023-06-26T00:38:57;9.02;;;8.13;;
36585;SDS011;22591;48.314;11.562;2023-06-26T00:41:23;9.95;;;8.95;;
36585;SDS011;22591;48.314;11.562;2023-06-26T00:43:49;9.80;;;8.90;;
36585;SDS011;22591;48.314;11.562;2023-06-26T00:46:15;8.90;;;8.07;;
36585;SDS011;22591;48.314;11.562;2023-06-26T00:48:42;9.82;;;9.02;;
36585;SDS011;22591;48.314;11.562;2023-06-26T00:51:08;11.40;;;8.52;;
36585;SDS011;22591;48.314;11.562;2023-06-26T00:53:34;9.48;;;8.68;;
36585;SDS011;22591;48.314;11.562;2023-06-26T00:56:00;8.85;;;8.10;;
36585;SDS011;22591;48.314;11.562;2023-06-26T00:58:27;8.02;;;7.32;;
36585;SDS011;22591;48.314;11.562;2023-06-26T01:00:52;7.30;;;6.70;;
36585;SDS011;22591;48.314;11.562;2023-06-26T01:03:19;9.30;;;8.55;;
36585;SDS011;22591;48.314;11.562;2023-06-26T01:05:46;9.27;;;8.35;;
36585;SDS011;22591;48.314;11.562;2023-06-26T01:08:14;10.93;;;9.40;;
36585;SDS011;22591;48.314;11.562;2023-06-26T01:10:40;10.63;;;9.68;;
36585;SDS011;22591;48.314;11.562;2023-06-26T01:13:07;10.98;;;9.52;;
36585;SDS011;22591;48.314;11.562;2023-06-26T01:15:33;9.75;;;8.77;;
36585;SDS011;22591;48.314;11.562;2023-06-26T01:17:58;8.18;;;7.38;;
36585;SDS011;22591;48.314;11.562;2023-06-26T01:20:28;10.73;;;9.05;;
36585;SDS011;22591;48.314;11.562;2023-06-26T01:25:52;9.50;;;8.70;;
36585;SDS011;22591;48.314;11.562;2023-06-26T01:28:32;8.57;;;7.88;;
36585;SDS011;22591;48.314;11.562;2023-06-26T01:30:59;10.13;;;9.18;;
36585;SDS011;22591;48.314;11.562;2023-06-26T01:33:25;10.35;;;9.48;;
36585;SDS011;22591;48.314;11.562;2023-06-26T01:35:52;10.45;;;9.45;;
36585;SDS011;22591;48.314;11.562;2023-06-26T01:38:19;11.93;;;10.70;;
36585;SDS011;22591;48.314;11.562;2023-06-26T01:40:48;10.30;;;9.50;;
36585;SDS011;22591;48.314;11.562;2023-06-26T01:46:19;10.52;;;9.63;;
36585;SDS011;22591;48.314;11.562;2023-06-26T01:51:32;11.13;;;10.15;;
36585;SDS011;22591;48.314;11.562;2023-06-26T01:56:30;9.95;;;8.98;;
36585;SDS011;22591;48.314;11.562;2023-06-26T01:58:56;9.82;;;8.82;;
36585;SDS011;22591;48.314;11.562;2023-06-26T02:01:22;9.95;;;8.70;;
36585;SDS011;22591;48.314;11.562;2023-06-26T02:03:48;10.18;;;8.85;;
36585;SDS011;22591;48.314;11.562;2023-06-26T02:06:13;9.60;;;8.13;;
36585;SDS011;22591;48.314;11.562;2023-06-26T02:08:39;10.43;;;9.50;;
36585;SDS011;22591;48.314;11.562;2023-06-26T02:11:05;12.10;;;10.85;;
36585;SDS011;22591;48.314;11.562;2023-06-26T02:13:31;11.52;;;10.52;;
36585;SDS011;22591;48.314;11.562;2023-06-26T02:15:56;12.98;;;11.73;;
36585;SDS011;22591;48.314;11.562;2023-06-26T02:18:22;12.55;;;11.20;;
36585;SDS011;22591;48.314;11.562;2023-06-26T02:20:48;11.55;;;10.48;;
36585;SDS011;22591;48.314;11.562;2023-06-26T02:23:14;11.63;;;10.63;;
36585;SDS011;22591;48.314;11.562;2023-06-26T02:25:39;11.98;;;10.95;;
36585;SDS011;22591;48.314;11.562;2023-06-26T02:28:05;11.68;;;10.57;;
36585;SDS011;22591;48.314;11.562;2023-06-26T02:30:30;12.00;;;10.82;;
36585;SDS011;22591;48.314;11.562;2023-06-26T02:32:56;12.18;;;10.95;;
36585;SDS011;22591;48.314;11.562;2023-06-26T02:35:21;11.57;;;10.48;;
36585;SDS011;22591;48.314;11.562;2023-06-26T02:37:47;12.27;;;11.02;;
36585;SDS011;22591;48.314;11.562;2023-06-26T02:40:12;11.98;;;10.85;;
36585;SDS011;22591;48.314;11.562;2023-06-26T02:42:38;11.40;;;10.32;;
36585;SDS011;22591;48.314;11.562;2023-06-26T02:45:04;11.30;;;10.30;;
36585;SDS011;22591;48.314;11.562;2023-06-26T02:47:29;14.57;;;13.18;;
36585;SDS011;22591;48.314;11.562;2023-06-26T02:49:55;14.05;;;12.65;;
36585;SDS011;22591;48.314;11.562;2023-06-26T02:52:20;13.98;;;12.68;;
36585;SDS011;22591;48.314;11.562;2023-06-26T02:54:46;15.18;;;13.65;;
36585;SDS011;22591;48.314;11.562;2023-06-26T02:57:11;15.38;;;13.77;;
36585;SDS011;22591;48.314;11.562;2023-06-26T02:59:39;15.10;;;13.70;;
36585;SDS011;22591;48.314;11.562;2023-06-26T03:02:05;15.27;;;13.63;;
36585;SDS011;22591;48.314;11.562;2023-06-26T03:04:30;17.27;;;12.77;;
36585;SDS011;22591;48.314;11.562;2023-06-26T03:06:56;13.38;;;11.95;;
36585;SDS011;22591;48.314;11.562;2023-06-26T03:09:21;14.10;;;12.68;;
36585;SDS011;22591;48.314;11.562;2023-06-26T03:11:47;14.55;;;13.05;;
36585;SDS011;22591;48.314;11.562;2023-06-26T03:14:13;14.07;;;12.50;;
36585;SDS011;22591;48.314;11.562;2023-06-26T03:16:39;14.00;;;12.32;;
36585;SDS011;22591;48.314;11.562;2023-06-26T03:19:04;14.45;;;12.95;;
36585;SDS011;22591;48.314;11.562;2023-06-26T03:21:30;15.90;;;14.00;;
36585;SDS011;22591;48.314;11.562;2023-06-26T03:23:56;15.98;;;14.23;;
36585;SDS011;22591;48.314;11.562;2023-06-26T03:26:22;16.15;;;14.55;;
36585;SDS011;22591;48.314;11.562;2023-06-26T03:28:52;15.10;;;13.50;;
36585;SDS011;22591;48.314;11.562;2023-06-26T03:31:18;13.55;;;12.18;;
36585;SDS011;22591;48.314;11.562;2023-06-26T03:33:44;12.52;;;11.23;;
36585;SDS011;22591;48.314;11.562;2023-06-26T03:36:09;13.27;;;11.43;;
36585;SDS011;22591;48.314;11.562;2023-06-26T03:38:35;12.55;;;11.35;;
36585;SDS011;22591;48.314;11.562;2023-06-26T03:41:00;13.00;;;11.05;;
36585;SDS011;22591;48.314;11.562;2023-06-26T03:43:26;12.18;;;11.00;;
36585;SDS011;22591;48.314;11.562;2023-06-26T03:45:51;12.10;;;10.93;;
36585;SDS011;22591;48.314;11.562;2023-06-26T03:48:17;12.25;;;11.07;;
36585;SDS011;22591;48.314;11.562;2023-06-26T03:50:44;13.48;;;10.35;;
36585;SDS011;22591;48.314;11.562;2023-06-26T03:53:10;10.35;;;9.35;;
36585;SDS011;22591;48.314;11.562;2023-06-26T03:55:36;9.70;;;8.70;;
36585;SDS011;22591;48.314;11.562;2023-06-26T03:58:03;10.02;;;9.13;;
36585;SDS011;22591;48.314;11.562;2023-06-26T04:00:29;10.07;;;9.02;;
36585;SDS011;22591;48.314;11.562;2023-06-26T04:02:54;10.02;;;8.88;;
36585;SDS011;22591;48.314;11.562;2023-06-26T04:05:20;10.18;;;9.18;;
36585;SDS011;22591;48.314;11.562;2023-06-26T04:07:45;10.65;;;9.73;;
36585;SDS011;22591;48.314;11.562;2023-06-26T04:10:14;10.45;;;9.40;;
36585;SDS011;22591;48.314;11.562;2023-06-26T04:12:39;11.80;;;9.10;;
36585;SDS011;22591;48.314;11.562;2023-06-26T04:15:05;11.15;;;9.52;;
36585;SDS011;22591;48.314;11.562;2023-06-26T04:17:31;9.50;;;8.25;;
36585;SDS011;22591;48.314;11.562;2023-06-26T04:19:56;13.25;;;8.85;;
36585;SDS011;22591;48.314;11.562;2023-06-26T04:22:22;9.73;;;8.82;;
36585;SDS011;22591;48.314;11.562;2023-06-26T04:24:47;9.43;;;8.63;;
36585;SDS011;22591;48.314;11.562;2023-06-26T04:27:14;9.40;;;8.25;;
36585;SDS011;22591;48.314;11.562;2023-06-26T04:29:39;9.43;;;8.32;;
36585;SDS011;22591;48.314;11.562;2023-06-26T04:32:05;8.82;;;8.02;;
36585;SDS011;22591;48.314;11.562;2023-06-26T04:34:32;8.82;;;8.02;;
36585;SDS011;22591;48.314;11.562;2023-06-26T04:36:58;8.60;;;7.85;;
36585;SDS011;22591;48.314;11.562;2023-06-26T04:39:24;9.48;;;8.57;;
36585;SDS011;22591;48.314;11.562;2023-06-26T04:41:50;8.75;;;7.97;;
36585;SDS011;22591;48.314;11.562;2023-06-26T04:44:15;12.27;;;8.70;;
36585;SDS011;22591;48.314;11.562;2023-06-26T04:46:41;10.55;;;9.55;;
36585;SDS011;22591;48.314;11.562;2023-06-26T04:49:07;9.88;;;8.98;;
36585;SDS011;22591;48.314;11.562;2023-06-26T04:51:33;9.95;;;9.05;;
36585;SDS011;22591;48.314;11.562;2023-06-26T04:54:03;9.60;;;8.77;;
36585;SDS011;22591;48.314;11.562;2023-06-26T04:56:28;7.85;;;7.15;;
36585;SDS011;22591;48.314;11.562;2023-06-26T04:58:55;9.32;;;8.52;;
36585;SDS011;22591;48.314;11.562;2023-06-26T05:01:21;9.75;;;8.75;;
36585;SDS011;22591;48.314;11.562;2023-06-26T05:03:46;9.65;;;8.85;;
36585;SDS011;22591;48.314;11.562;2023-06-26T05:06:12;10.57;;;9.48;;
36585;SDS011;22591;48.314;11.562;2023-06-26T05:08:38;9.85;;;8.95;;
36585;SDS011;22591;48.314;11.562;2023-06-26T05:11:03;10.73;;;9.73;;
36585;SDS011;22591;48.314;11.562;2023-06-26T05:13:29;13.38;;;9.45;;
36585;SDS011;22591;48.314;11.562;2023-06-26T05:15:54;9.98;;;8.98;;
36585;SDS011;22591;48.314;11.562;2023-06-26T05:18:20;9.95;;;9.05;;
36585;SDS011;22591;48.314;11.562;2023-06-26T05:20:46;10.90;;;9.48;;
36585;SDS011;22591;48.314;11.562;2023-06-26T05:23:12;10.07;;;9.18;;
36585;SDS011;22591;48.314;11.562;2023-06-26T05:25:38;10.32;;;9.38;;
36585;SDS011;22591;48.314;11.562;2023-06-26T05:28:03;10.32;;;9.38;;
36585;SDS011;22591;48.314;11.562;2023-06-26T05:30:35;10.27;;;8.77;;
36585;SDS011;22591;48.314;11.562;2023-06-26T05:33:02;10.10;;;9.20;;
36585;SDS011;22591;48.314;11.562;2023-06-26T05:35:29;10.43;;;9.55;;
36585;SDS011;22591;48.314;11.562;2023-06-26T05:37:55;9.95;;;9.15;;
36585;SDS011;22591;48.314;11.562;2023-06-26T05:40:21;10.43;;;9.50;;
36585;SDS011;22591;48.314;11.562;2023-06-26T05:42:47;11.30;;;9.98;;
36585;SDS011;22591;48.314;11.562;2023-06-26T05:45:13;9.50;;;8.50;;
36585;SDS011;22591;48.314;11.562;2023-06-26T05:47:39;10.50;;;9.55;;
36585;SDS011;22591;48.314;11.562;2023-06-26T05:50:06;9.95;;;8.95;;
36585;SDS011;22591;48.314;11.562;2023-06-26T05:52:32;10.82;;;9.88;;
36585;SDS011;22591;48.314;11.562;2023-06-26T05:54:58;9.82;;;9.02;;
36585;SDS011;22591;48.314;11.562;2023-06-26T05:57:25;12.05;;;9.60;;
36585;SDS011;22591;48.314;11.562;2023-06-26T05:59:53;9.48;;;8.57;;
36585;SDS011;22591;48.314;11.562;2023-06-26T06:02:18;9.90;;;9.20;;
36585;SDS011;22591;48.314;11.562;2023-06-26T06:04:44;10.07;;;9.13;;
36585;SDS011;22591;48.314;11.562;2023-06-26T06:07:10;10.18;;;9.27;;
36585;SDS011;22591;48.314;11.562;2023-06-26T06:09:36;9.38;;;8.55;;
36585;SDS011;22591;48.314;11.562;2023-06-26T06:12:02;11.52;;;10.00;;
36585;SDS011;22591;48.314;11.562;2023-06-26T06:14:32;9.68;;;8.88;;
36585;SDS011;22591;48.314;11.562;2023-06-26T06:16:58;10.63;;;9.25;;
36585;SDS011;22591;48.314;11.562;2023-06-26T06:19:24;9.93;;;9.00;;
36585;SDS011;22591;48.314;11.562;2023-06-26T06:21:49;9.68;;;8.88;;
36585;SDS011;22591;48.314;11.562;2023-06-26T06:24:15;10.38;;;9.40;;
36585;SDS011;22591;48.314;11.562;2023-06-26T06:26:41;10.13;;;9.32;;
36585;SDS011;22591;48.314;11.562;2023-06-26T06:29:06;8.43;;;7.93;;
36585;SDS011;22591;48.314;11.562;2023-06-26T06:31:32;10.18;;;9.30;;
36585;SDS011;22591;48.314;11.562;2023-06-26T06:33:57;10.88;;;9.82;;
36585;SDS011;22591;48.314;11.562;2023-06-26T06:36:23;9.40;;;8.80;;
36585;SDS011;22591;48.314;11.562;2023-06-26T06:38:49;10.27;;;9.38;;
36585;SDS011;22591;48.314;11.562;2023-06-26T06:41:14;9.60;;;8.90;;
36585;SDS011;22591;48.314;11.562;2023-06-26T06:43:41;16.58;;;9.57;;
36585;SDS011;22591;48.314;11.562;2023-06-26T06:46:07;9.63;;;8.93;;
36585;SDS011;22591;48.314;11.562;2023-06-26T06:48:32;8.82;;;8.20;;
36585;SDS011;22591;48.314;11.562;2023-06-26T06:50:58;10.55;;;9.52;;
36585;SDS011;22591;48.314;11.562;2023-06-26T06:53:23;9.60;;;8.82;;
36585;SDS011;22591;48.314;11.562;2023-06-26T06:55:49;8.20;;;7.65;;
36585;SDS011;22591;48.314;11.562;2023-06-26T06:58:15;9.35;;;8.45;;
36585;SDS011;22591;48.314;11.562;2023-06-26T07:00:47;9.93;;;9.13;;
36585;SDS011;22591;48.314;11.562;2023-06-26T07:03:13;9.55;;;8.68;;
36585;SDS011;22591;48.314;11.562;2023-06-26T07:05:41;9.18;;;8.50;;
36585;SDS011;22591;48.314;11.562;2023-06-26T07:08:07;9.07;;;8.18;;
36585;SDS011;22591;48.314;11.562;2023-06-26T07:10:33;10.07;;;9.25;;
36585;SDS011;22591;48.314;11.562;2023-06-26T07:12:59;9.63;;;8.80;;
36585;SDS011;22591;48.314;11.562;2023-06-26T07:15:24;9.90;;;9.02;;
36585;SDS011;22591;48.314;11.562;2023-06-26T07:17:50;8.63;;;7.78;;
36585;SDS011;22591;48.314;11.562;2023-06-26T07:20:15;8.70;;;8.00;;
36585;SDS011;22591;48.314;11.562;2023-06-26T07:22:41;9.40;;;8.55;;
36585;SDS011;22591;48.314;11.562;2023-06-26T07:25:07;8.70;;;8.02;;
36585;SDS011;22591;48.314;11.562;2023-06-26T07:27:39;9.10;;;8.32;;
36585;SDS011;22591;48.314;11.562;2023-06-26T07:30:05;9.13;;;8.43;;
36585;SDS011;22591;48.314;11.562;2023-06-26T07:32:35;8.30;;;7.60;;
36585;SDS011;22591;48.314;11.562;2023-06-26T07:35:01;8.90;;;8.00;;
36585;SDS011;22591;48.314;11.562;2023-06-26T07:37:26;9.85;;;7.85;;
36585;SDS011;22591;48.314;11.562;2023-06-26T07:39:52;10.07;;;8.48;;
36585;SDS011;22591;48.314;11.562;2023-06-26T07:42:17;10.07;;;8.63;;
36585;SDS011;22591;48.314;11.562;2023-06-26T07:44:43;9.15;;;8.32;;
36585;SDS011;22591;48.314;11.562;2023-06-26T07:47:09;13.20;;;8.27;;
36585;SDS011;22591;48.314;11.562;2023-06-26T07:49:35;11.93;;;7.97;;
36585;SDS011;22591;48.314;11.562;2023-06-26T07:52:01;9.32;;;8.63;;
36585;SDS011;22591;48.314;11.562;2023-06-26T07:54:26;8.48;;;7.65;;
36585;SDS011;22591;48.314;11.562;2023-06-26T07:59:25;8.63;;;7.97;;
36585;SDS011;22591;48.314;11.562;2023-06-26T08:01:52;10.10;;;8.10;;
36585;SDS011;22591;48.314;11.562;2023-06-26T08:04:19;9.02;;;8.32;;
36585;SDS011;22591;48.314;11.562;2023-06-26T08:06:47;10.43;;;8.20;;
36585;SDS011;22591;48.314;11.562;2023-06-26T08:09:13;8.38;;;7.70;;
36585;SDS011;22591;48.314;11.562;2023-06-26T08:11:39;8.85;;;8.13;;
36585;SDS011;22591;48.314;11.562;2023-06-26T08:14:04;12.73;;;9.07;;
36585;SDS011;22591;48.314;11.562;2023-06-26T08:16:30;8.60;;;7.88;;
36585;SDS011;22591;48.314;11.562;2023-06-26T08:18:55;7.40;;;6.90;;
36585;SDS011;22591;48.314;11.562;2023-06-26T08:21:21;7.97;;;7.25;;
36585;SDS011;22591;48.314;11.562;2023-06-26T08:23:46;8.68;;;7.93;;
36585;SDS011;22591;48.314;11.562;2023-06-26T08:26:12;7.80;;;7.10;;
36585;SDS011;22591;48.314;11.562;2023-06-26T08:28:38;7.97;;;7.35;;
36585;SDS011;22591;48.314;11.562;2023-06-26T08:31:04;8.65;;;7.90;;
36585;SDS011;22591;48.314;11.562;2023-06-26T08:33:29;9.10;;;8.27;;
36585;SDS011;22591;48.314;11.562;2023-06-26T08:35:55;8.57;;;7.72;;
36585;SDS011;22591;48.314;11.562;2023-06-26T08:38:20;8.23;;;7.43;;
36585;SDS011;22591;48.314;11.562;2023-06-26T08:40:46;7.53;;;6.95;;
36585;SDS011;22591;48.314;11.562;2023-06-26T08:43:12;8.57;;;7.03;;
36585;SDS011;22591;48.314;11.562;2023-06-26T08:45:38;7.68;;;6.72;;
36585;SDS011;22591;48.314;11.562;2023-06-26T08:48:03;7.38;;;6.88;;
36585;SDS011;22591;48.314;11.562;2023-06-26T08:50:35;7.88;;;7.20;;
36585;SDS011;22591;48.314;11.562;2023-06-26T08:55:58;7.75;;;7.15;;
36585;SDS011;22591;48.314;11.562;2023-06-26T08:58:24;7.50;;;6.80;;
36585;SDS011;22591;48.314;11.562;2023-06-26T09:00:50;7.82;;;7.22;;
36585;SDS011;22591;48.314;11.562;2023-06-26T09:03:16;7.05;;;6.60;;
36585;SDS011;22591;48.314;11.562;2023-06-26T09:05:42;7.20;;;6.57;;
36585;SDS011;22591;48.314;11.562;2023-06-26T09:08:08;8.02;;;7.32;;
36585;SDS011;22591;48.314;11.562;2023-06-26T09:10:33;7.65;;;6.95;;
36585;SDS011;22591;48.314;11.562;2023-06-26T09:12:59;7.38;;;6.82;;
36585;SDS011;22591;48.314;11.562;2023-06-26T09:15:26;8.73;;;6.53;;
36585;SDS011;22591;48.314;11.562;2023-06-26T09:17:55;6.60;;;6.10;;
36585;SDS011;22591;48.314;11.562;2023-06-26T09:20:22;7.13;;;6.40;;
36585;SDS011;22591;48.314;11.562;2023-06-26T09:22:48;7.03;;;6.45;;
36585;SDS011;22591;48.314;11.562;2023-06-26T09:25:13;7.40;;;6.60;;
36585;SDS011;22591;48.314;11.562;2023-06-26T09:27:39;6.50;;;6.07;;
36585;SDS011;22591;48.314;11.562;2023-06-26T09:30:07;6.28;;;5.78;;
36585;SDS011;22591;48.314;11.562;2023-06-26T09:32:36;6.18;;;5.78;;
36585;SDS011;22591;48.314;11.562;2023-06-26T09:35:02;6.85;;;6.25;;
36585;SDS011;22591;48.314;11.562;2023-06-26T09:37:28;6.90;;;6.40;;
36585;SDS011;22591;48.314;11.562;2023-06-26T09:39:54;6.25;;;5.85;;
36585;SDS011;22591;48.314;11.562;2023-06-26T09:42:20;6.55;;;6.15;;
36585;SDS011;22591;48.314;11.562;2023-06-26T09:44:49;6.05;;;5.70;;
36585;SDS011;22591;48.314;11.562;2023-06-26T09:47:16;6.78;;;6.28;;
36585;SDS011;22591;48.314;11.562;2023-06-26T09:49:43;6.40;;;5.90;;
36585;SDS011;22591;48.314;11.562;2023-06-26T09:52:09;6.18;;;5.70;;
36585;SDS011;22591;48.314;11.562;2023-06-26T09:54:38;6.38;;;5.88;;
36585;SDS011;22591;48.314;11.562;2023-06-26T09:57:10;6.07;;;5.63;;
36585;SDS011;22591;48.314;11.562;2023-06-26T09:59:37;6.18;;;5.70;;
36585;SDS011;22591;48.314;11.562;2023-06-26T10:02:03;5.88;;;5.50;;
36585;SDS011;22591;48.314;11.562;2023-06-26T10:04:29;5.70;;;5.30;;
36585;SDS011;22591;48.314;11.562;2023-06-26T10:06:55;6.63;;;5.45;;
36585;SDS011;22591;48.314;11.562;2023-06-26T10:09:23;5.28;;;4.97;;
36585;SDS011;22591;48.314;11.562;2023-06-26T10:11:56;6.05;;;5.53;;
36585;SDS011;22591;48.314;11.562;2023-06-26T10:14:33;6.32;;;5.40;;
36585;SDS011;22591;48.314;11.562;2023-06-26T10:17:01;5.55;;;5.13;;
36585;SDS011;22591;48.314;11.562;2023-06-26T10:19:28;6.72;;;5.50;;
36585;SDS011;22591;48.314;11.562;2023-06-26T10:21:56;6.05;;;5.55;;
36585;SDS011;22591;48.314;11.562;2023-06-26T10:24:25;5.45;;;5.05;;
36585;SDS011;22591;48.314;11.562;2023-06-26T10:26:55;5.50;;;5.20;;
36585;SDS011;22591;48.314;11.562;2023-06-26T10:29:26;5.47;;;5.18;;
36585;SDS011;22591;48.314;11.562;2023-06-26T10:31:54;5.72;;;5.30;;
36585;SDS011;22591;48.314;11.562;2023-06-26T10:34:22;5.22;;;4.82;;
36585;SDS011;22591;48.314;11.562;2023-06-26T10:36:55;5.50;;;5.00;;
36585;SDS011;22591;48.314;11.562;2023-06-26T10:39:24;5.57;;;5.28;;
36585;SDS011;22591;48.314;11.562;2023-06-26T10:41:50;6.38;;;5.43;;
36585;SDS011;22591;48.314;11.562;2023-06-26T10:44:19;5.15;;;4.85;;
36585;SDS011;22591;48.314;11.562;2023-06-26T10:49:17;5.28;;;4.93;;
36585;SDS011;22591;48.314;11.562;2023-06-26T10:51:49;4.68;;;4.38;;
36585;SDS011;22591;48.314;11.562;2023-06-26T10:54:16;5.25;;;4.85;;
36585;SDS011;22591;48.314;11.562;2023-06-26T10:56:43;5.63;;;5.13;;
36585;SDS011;22591;48.314;11.562;2023-06-26T10:59:14;5.15;;;4.75;;
36585;SDS011;22591;48.314;11.562;2023-06-26T11:01:53;5.30;;;4.80;;
36585;SDS011;22591;48.314;11.562;2023-06-26T11:09:56;5.07;;;4.72;;
36585;SDS011;22591;48.314;11.562;2023-06-26T11:12:33;5.97;;;4.90;;
36585;SDS011;22591;48.314;11.562;2023-06-26T11:15:09;4.93;;;4.60;;
36585;SDS011;22591;48.314;11.562;2023-06-26T11:17:44;5.88;;;5.20;;
36585;SDS011;22591;48.314;11.562;2023-06-26T11:20:13;5.38;;;5.07;;
36585;SDS011;22591;48.314;11.562;2023-06-26T11:22:41;4.93;;;4.53;;
36585;SDS011;22591;48.314;11.562;2023-06-26T11:25:08;6.05;;;5.55;;
36585;SDS011;22591;48.314;11.562;2023-06-26T11:27:41;5.47;;;5.07;;
36585;SDS011;22591;48.314;11.562;2023-06-26T11:30:10;5.65;;;5.10;;
36585;SDS011;22591;48.314;11.562;2023-06-26T11:32:47;5.40;;;5.10;;
36585;SDS011;22591;48.314;11.562;2023-06-26T11:35:12;5.60;;;5.28;;
36585;SDS011;22591;48.314;11.562;2023-06-26T11:37:38;7.95;;;5.68;;
36585;SDS011;22591;48.314;11.562;2023-06-26T11:40:19;6.60;;;5.95;;
36585;SDS011;22591;48.314;11.562;2023-06-26T11:42:46;4.95;;;4.65;;
36585;SDS011;22591;48.314;11.562;2023-06-26T11:45:12;5.18;;;4.82;;
36585;SDS011;22591;48.314;11.562;2023-06-26T11:47:38;6.18;;;4.95;;
36585;SDS011;22591;48.314;11.562;2023-06-26T11:50:04;5.43;;;5.13;;
36585;SDS011;22591;48.314;11.562;2023-06-26T11:52:30;6.32;;;4.78;;
36585;SDS011;22591;48.314;11.562;2023-06-26T11:54:58;6.47;;;5.30;;
36585;SDS011;22591;48.314;11.562;2023-06-26T11:57:23;5.28;;;4.88;;
36585;SDS011;22591;48.314;11.562;2023-06-26T11:59:49;5.72;;;5.00;;
36585;SDS011;22591;48.314;11.562;2023-06-26T12:02:17;6.20;;;5.32;;
36585;SDS011;22591;48.314;11.562;2023-06-26T12:04:43;4.95;;;4.60;;
36585;SDS011;22591;48.314;11.562;2023-06-26T12:07:10;5.47;;;5.18;;
36585;SDS011;22591;48.314;11.562;2023-06-26T12:09:39;5.45;;;5.15;;
36585;SDS011;22591;48.314;11.562;2023-06-26T12:12:09;6.00;;;5.60;;
36585;SDS011;22591;48.314;11.562;2023-06-26T12:14:35;5.95;;;5.45;;
36585;SDS011;22591;48.314;11.562;2023-06-26T12:17:11;5.70;;;5.30;;
36585;SDS011;22591;48.314;11.562;2023-06-26T12:19:39;6.47;;;5.97;;
36585;SDS011;22591;48.314;11.562;2023-06-26T12:22:08;5.85;;;5.18;;
36585;SDS011;22591;48.314;11.562;2023-06-26T12:24:38;6.18;;;5.43;;
36585;SDS011;22591;48.314;11.562;2023-06-26T12:27:08;5.57;;;5.18;;
36585;SDS011;22591;48.314;11.562;2023-06-26T12:29:39;5.70;;;5.32;;
36585;SDS011;22591;48.314;11.562;2023-06-26T12:32:09;5.43;;;5.13;;
36585;SDS011;22591;48.314;11.562;2023-06-26T12:34:36;5.93;;;5.43;;
36585;SDS011;22591;48.314;11.562;2023-06-26T12:37:11;6.10;;;5.55;;
36585;SDS011;22591;48.314;11.562;2023-06-26T12:39:45;5.32;;;5.03;;
36585;SDS011;22591;48.314;11.562;2023-06-26T12:42:12;5.68;;;5.32;;
36585;SDS011;22591;48.314;11.562;2023-06-26T12:44:39;5.80;;;5.40;;
36585;SDS011;22591;48.314;11.562;2023-06-26T12:47:05;5.95;;;5.55;;
36585;SDS011;22591;48.314;11.562;2023-06-26T12:49:35;9.10;;;5.55;;
36585;SDS011;22591;48.314;11.562;2023-06-26T12:52:03;5.72;;;5.43;;
36585;SDS011;22591;48.314;11.562;2023-06-26T12:54:33;6.03;;;5.47;;
36585;SDS011;22591;48.314;11.562;2023-06-26T12:56:59;5.90;;;5.60;;
36585;SDS011;22591;48.314;11.562;2023-06-26T12:59:25;6.72;;;6.03;;
36585;SDS011;22591;48.314;11.562;2023-06-26T13:01:51;6.60;;;5.78;;
36585;SDS011;22591;48.314;11.562;2023-06-26T13:04:16;5.88;;;5.47;;
36585;SDS011;22591;48.314;11.562;2023-06-26T13:06:42;6.35;;;5.90;;
36585;SDS011;22591;48.314;11.562;2023-06-26T13:09:08;11.02;;;6.82;;
36585;SDS011;22591;48.314;11.562;2023-06-26T13:11:34;6.78;;;5.57;;
36585;SDS011;22591;48.314;11.562;2023-06-26T13:14:01;6.25;;;5.90;;
36585;SDS011;22591;48.314;11.562;2023-06-26T13:16:27;6.57;;;6.05;;
36585;SDS011;22591;48.314;11.562;2023-06-26T13:18:52;5.85;;;5.35;;
36585;SDS011;22591;48.314;11.562;2023-06-26T13:21:18;6.10;;;5.70;;
36585;SDS011;22591;48.314;11.562;2023-06-26T13:23:44;6.82;;;6.13;;
36585;SDS011;22591;48.314;11.562;2023-06-26T13:26:10;6.40;;;5.90;;
36585;SDS011;22591;48.314;11.562;2023-06-26T13:28:36;6.30;;;5.70;;
36585;SDS011;22591;48.314;11.562;2023-06-26T13:31:02;6.13;;;5.63;;
36585;SDS011;22591;48.314;11.562;2023-06-26T13:33:28;6.00;;;5.60;;
36585;SDS011;22591;48.314;11.562;2023-06-26T13:35:54;6.15;;;5.75;;
36585;SDS011;22591;48.314;11.562;2023-06-26T13:38:20;6.18;;;5.60;;
36585;SDS011;22591;48.314;11.562;2023-06-26T13:40:52;5.80;;;5.40;;
36585;SDS011;22591;48.314;11.562;2023-06-26T13:43:20;6.10;;;5.70;;
36585;SDS011;22591;48.314;11.562;2023-06-26T13:45:46;6.13;;;5.63;;
36585;SDS011;22591;48.314;11.562;2023-06-26T13:48:11;5.72;;;5.22;;
36585;SDS011;22591;48.314;11.562;2023-06-26T13:50:37;6.13;;;5.40;;
36585;SDS011;22591;48.314;11.562;2023-06-26T13:53:03;5.90;;;5.50;;
36585;SDS011;22591;48.314;11.562;2023-06-26T13:55:29;5.57;;;5.28;;
36585;SDS011;22591;48.314;11.562;2023-06-26T13:57:55;6.03;;;5.63;;
36585;SDS011;22591;48.314;11.562;2023-06-26T14:00:21;6.18;;;5.65;;
36585;SDS011;22591;48.314;11.562;2023-06-26T14:02:47;5.68;;;5.18;;
36585;SDS011;22591;48.314;11.562;2023-06-26T14:05:13;6.00;;;5.50;;
36585;SDS011;22591;48.314;11.562;2023-06-26T14:07:39;6.00;;;5.50;;
36585;SDS011;22591;48.314;11.562;2023-06-26T14:10:05;5.57;;;5.28;;
36585;SDS011;22591;48.314;11.562;2023-06-26T14:12:31;5.65;;;5.25;;
36585;SDS011;22591;48.314;11.562;2023-06-26T14:14:57;6.72;;;6.20;;
36585;SDS011;22591;48.314;11.562;2023-06-26T14:17:24;6.20;;;5.63;;
36585;SDS011;22591;48.314;11.562;2023-06-26T14:19:51;6.00;;;5.32;;
36585;SDS011;22591;48.314;11.562;2023-06-26T14:22:18;5.32;;;5.03;;
36585;SDS011;22591;48.314;11.562;2023-06-26T14:24:44;6.97;;;5.85;;
36585;SDS011;22591;48.314;11.562;2023-06-26T14:27:09;6.10;;;5.70;;
36585;SDS011;22591;48.314;11.562;2023-06-26T14:29:35;5.68;;;5.32;;
36585;SDS011;22591;48.314;11.562;2023-06-26T14:32:02;5.95;;;5.47;;
36585;SDS011;22591;48.314;11.562;2023-06-26T14:34:28;5.78;;;5.35;;
36585;SDS011;22591;48.314;11.562;2023-06-26T14:36:54;5.95;;;5.47;;
36585;SDS011;22591;48.314;11.562;2023-06-26T14:39:20;12.10;;;5.97;;
36585;SDS011;22591;48.314;11.562;2023-06-26T14:41:46;5.55;;;5.15;;
36585;SDS011;22591;48.314;11.562;2023-06-26T14:44:12;5.93;;;5.53;;
36585;SDS011;22591;48.314;11.562;2023-06-26T14:46:38;5.68;;;5.10;;
36585;SDS011;22591;48.314;11.562;2023-06-26T14:49:04;5.85;;;5.38;;
36585;SDS011;22591;48.314;11.562;2023-06-26T14:51:30;6.43;;;5.85;;